Time;durP1;ratioP1;P1;durP2;ratioP2;P2;SDS_P1;SDS_P2;PMS_P1;PMS_P2;Temp;Humidity;BMP_temperature;BMP_pressure;BME280_temperature;BME280_humidity;BME280_pressure;Samples;Min_cycle;Max_cycle;Signal;HPM_P1;HPM_P2
2021/05/10 00:00:13;;;;;;;1.40;1.30;;;;;;;18.70;47.34;95682.47;5032077;28;20235;-62
2021/05/10 00:02:39;;;;;;;1.00;1.00;;;;;;;18.73;47.47;95686.38;5030952;28;20233;-62
2021/05/10 00:05:05;;;;;;;1.30;1.30;;;;;;;18.74;47.21;95698.56;5031519;28;20627;-62
2021/05/10 00:07:30;;;;;;;1.45;1.35;;;;;;;18.71;47.66;95702.63;5030642;28;20191;-62
2021/05/10 00:09:56;;;;;;;1.35;1.25;;;;;;;18.71;47.81;95705.28;5013980;28;20199;-62
2021/05/10 00:12:21;;;;;;;0.90;0.90;;;;;;;18.70;47.25;95716.97;5030601;28;20182;-62
2021/05/10 00:14:48;;;;;;;1.52;1.42;;;;;;;18.77;47.47;95713.91;5031569;28;20182;-62
2021/05/10 00:17:14;;;;;;;1.20;1.20;;;;;;;18.82;47.25;95711.09;5031242;28;20655;-62
2021/05/10 00:19:40;;;;;;;1.30;1.30;;;;;;;18.79;47.59;95711.69;5031572;28;20181;-63
2021/05/10 00:22:05;;;;;;;1.38;1.27;;;;;;;18.78;47.45;95708.25;5032082;28;20546;-63
2021/05/10 00:24:31;;;;;;;1.30;1.20;;;;;;;18.74;47.73;95707.31;5013306;28;20277;-62
2021/05/10 00:26:56;;;;;;;1.50;1.50;;;;;;;18.71;47.43;95699.19;5031717;28;20194;-62
2021/05/10 00:29:22;;;;;;;1.10;1.10;;;;;;;18.71;47.35;95691.22;5031394;28;20187;-62
2021/05/10 00:31:48;;;;;;;1.38;1.20;;;;;;;18.74;47.84;95691.38;5031558;28;20640;-62
2021/05/10 00:34:14;;;;;;;1.20;1.20;;;;;;;18.78;47.38;95694.22;5031711;28;20248;-62
2021/05/10 00:36:40;;;;;;;1.63;1.50;;;;;;;18.74;47.36;95690.59;5031345;28;20225;-62
2021/05/10 00:39:06;;;;;;;1.25;1.23;;;;;;;18.71;47.59;95680.59;5031649;28;20217;-63
2021/05/10 00:41:32;;;;;;;1.40;1.30;;;;;;;18.67;47.50;95691.03;5012913;28;20701;-63
2021/05/10 00:43:58;;;;;;;1.70;1.40;;;;;;;18.61;47.62;95695.69;5031270;28;20198;-62
2021/05/10 00:46:23;;;;;;;1.30;1.20;;;;;;;18.68;47.62;95692.59;5012933;28;20324;-62
2021/05/10 00:48:49;;;;;;;1.42;1.30;;;;;;;18.44;47.67;95694.78;5031584;28;20550;-62
2021/05/10 00:51:14;;;;;;;1.48;1.38;;;;;;;18.27;48.02;95684.84;5031195;28;20203;-62
2021/05/10 00:53:39;;;;;;;1.95;1.48;;;;;;;18.36;47.68;95687.53;5013115;28;20351;-63
2021/05/10 00:56:05;;;;;;;1.65;1.55;;;;;;;18.36;47.78;95692.84;5031095;28;20631;-62
2021/05/10 00:58:32;;;;;;;1.70;1.60;;;;;;;18.51;47.35;95687.16;5029956;28;20261;-63
2021/05/10 01:00:58;;;;;;;1.35;1.25;;;;;;;18.48;47.20;95693.88;5021023;28;20226;-63
2021/05/10 01:03:23;;;;;;;1.40;1.38;;;;;;;18.37;47.61;95678.50;5012008;28;20277;-63
2021/05/10 01:05:49;;;;;;;1.50;1.40;;;;;;;18.25;47.81;95682.47;5031309;28;20175;-64
2021/05/10 01:08:14;;;;;;;1.52;1.42;;;;;;;18.40;47.55;95685.84;5030224;28;20190;-63
2021/05/10 01:10:40;;;;;;;2.50;1.40;;;;;;;18.20;47.85;95695.09;5030607;28;20218;-63
2021/05/10 01:13:05;;;;;;;1.27;1.27;;;;;;;18.05;48.58;95692.78;5030981;28;20182;-64
2021/05/10 01:15:31;;;;;;;2.65;1.52;;;;;;;17.92;48.78;95683.78;5030222;28;20226;-63
2021/05/10 01:17:56;;;;;;;1.67;1.58;;;;;;;17.94;48.53;95684.28;5030886;28;20649;-63
2021/05/10 01:20:23;;;;;;;2.55;1.30;;;;;;;17.89;49.08;95673.78;5029557;28;20631;-63
2021/05/10 01:22:51;;;;;;;1.67;1.58;;;;;;;17.95;48.88;95669.94;5030813;28;20210;-63
2021/05/10 01:25:23;;;;;;;2.50;1.45;;;;;;;17.96;48.53;95666.19;5030599;28;20274;-63
2021/05/10 01:27:49;;;;;;;1.83;1.60;;;;;;;17.89;48.42;95667.72;5030859;28;20186;-63
2021/05/10 01:30:24;;;;;;;1.45;1.35;;;;;;;17.83;48.66;95664.41;5029902;28;20289;-63
2021/05/10 01:32:51;;;;;;;1.45;1.35;;;;;;;17.72;48.71;95665.69;5030991;28;20187;-63
2021/05/10 01:35:19;;;;;;;3.33;1.52;;;;;;;17.70;48.77;95670.50;5030178;28;20705;-62
2021/05/10 01:37:45;;;;;;;1.50;1.40;;;;;;;17.57;48.96;95669.41;5030856;28;20709;-64
2021/05/10 01:40:11;;;;;;;1.08;1.08;;;;;;;17.47;49.48;95664.34;5030805;28;20190;-63
2021/05/10 01:42:37;;;;;;;1.30;1.20;;;;;;;17.49;49.14;95661.41;5012216;28;20189;-63
2021/05/10 01:45:04;;;;;;;1.33;1.25;;;;;;;17.55;49.27;95662.88;5030138;28;20191;-63
2021/05/10 01:47:30;;;;;;;1.17;1.17;;;;;;;17.45;49.72;95661.97;5011847;28;20191;-62
2021/05/10 01:49:55;;;;;;;1.20;1.10;;;;;;;17.37;49.50;95654.75;5030452;28;20223;-63
2021/05/10 01:52:21;;;;;;;1.30;1.30;;;;;;;17.38;49.23;95653.69;5011985;28;20209;-63
2021/05/10 01:54:48;;;;;;;1.40;1.30;;;;;;;17.39;49.09;95646.47;5013233;28;20543;-63
2021/05/10 01:57:13;;;;;;;1.58;1.42;;;;;;;17.37;49.23;95648.66;5030330;28;20182;-63
2021/05/10 01:59:39;;;;;;;1.60;1.50;;;;;;;17.33;49.33;95653.00;5029791;28;20183;-63
2021/05/10 02:02:04;;;;;;;2.42;1.20;;;;;;;17.32;48.95;95652.22;5030061;28;20643;-63
2021/05/10 02:05:04;;;;;;;1.30;1.30;;;;;;;17.44;48.21;95651.69;5029359;28;20183;-63
2021/05/10 02:07:30;;;;;;;1.23;1.23;;;;;;;17.40;48.24;95648.06;5022781;28;20313;-63
2021/05/10 02:09:55;;;;;;;1.35;1.30;;;;;;;17.44;48.27;95644.50;5030617;28;20297;-63
2021/05/10 02:12:20;;;;;;;1.98;1.70;;;;;;;17.36;48.35;95637.28;5029935;28;20183;-62
2021/05/10 02:14:47;;;;;;;1.35;1.25;;;;;;;17.59;47.66;95639.97;5030239;28;20694;-63
2021/05/10 02:17:12;;;;;;;1.40;1.30;;;;;;;17.45;47.37;95642.66;5030004;28;20190;-63
2021/05/10 02:19:37;;;;;;;1.10;1.10;;;;;;;17.45;47.69;95637.34;5029786;28;20266;-63
2021/05/10 02:22:03;;;;;;;1.33;1.23;;;;;;;17.44;47.57;95639.22;5030617;28;20187;-63
2021/05/10 02:24:28;;;;;;;1.40;1.30;;;;;;;17.42;47.61;95637.97;5029563;28;20183;-63
2021/05/10 02:26:53;;;;;;;1.25;1.20;;;;;;;17.54;47.36;95648.84;5030337;28;20208;-63
2021/05/10 02:29:19;;;;;;;1.05;1.05;;;;;;;17.50;47.38;95644.44;5029511;28;20183;-63
2021/05/10 02:31:46;;;;;;;1.00;1.00;;;;;;;17.44;47.22;95643.75;5029543;28;20269;-63
2021/05/10 02:34:11;;;;;;;1.48;1.20;;;;;;;17.41;47.57;95636.38;5034214;28;20666;-63
2021/05/10 02:36:36;;;;;;;1.27;1.20;;;;;;;17.50;47.07;95642.53;5033045;28;20191;-63
2021/05/10 02:39:03;;;;;;;1.48;1.38;;;;;;;17.42;46.31;95636.09;5033958;28;20213;-63
2021/05/10 02:41:28;;;;;;;0.80;0.80;;;;;;;17.41;46.19;95641.69;5032632;28;20190;-63
2021/05/10 02:43:53;;;;;;;1.10;1.10;;;;;;;17.45;46.13;95642.66;5034082;28;20228;-63
2021/05/10 02:46:19;;;;;;;1.00;1.00;;;;;;;17.37;45.87;95638.06;5033038;28;20268;-62
2021/05/10 02:48:44;;;;;;;1.17;1.17;;;;;;;17.43;45.90;95636.88;5033692;28;20547;-63
2021/05/10 02:51:10;;;;;;;1.42;1.20;;;;;;;17.50;45.64;95628.53;5033770;28;20336;-63
2021/05/10 02:53:36;;;;;;;2.50;1.38;;;;;;;17.46;45.57;95630.97;5032440;28;20730;-63
2021/05/10 02:56:01;;;;;;;1.10;1.10;;;;;;;17.30;45.77;95625.22;5033387;28;20193;-63
2021/05/10 02:58:27;;;;;;;1.00;1.00;;;;;;;17.27;45.77;95625.84;5032684;28;20750;-63
2021/05/10 03:00:52;;;;;;;1.63;1.25;;;;;;;17.16;45.59;95613.09;5015613;28;20244;-63
2021/05/10 03:03:17;;;;;;;1.58;1.17;;;;;;;17.14;46.02;95607.31;5032420;28;20758;-62
2021/05/10 03:05:43;;;;;;;1.38;1.05;;;;;;;17.12;46.05;95610.25;5032788;28;20201;-63
2021/05/10 03:08:08;;;;;;;1.35;1.25;;;;;;;17.13;46.38;95622.41;5015911;28;20182;-63
2021/05/10 03:10:33;;;;;;;1.10;1.10;;;;;;;17.12;46.44;95628.00;5032639;28;20272;-63
2021/05/10 03:12:59;;;;;;;1.52;1.20;;;;;;;17.20;46.50;95617.50;5015636;28;20182;-63
2021/05/10 03:15:24;;;;;;;1.25;1.23;;;;;;;17.15;46.50;95614.97;5032482;28;20658;-63
2021/05/10 03:17:51;;;;;;;1.40;1.30;;;;;;;17.10;46.13;95614.28;5033272;28;20195;-63
2021/05/10 03:20:20;;;;;;;1.25;1.25;;;;;;;17.11;46.29;95618.50;5032195;28;20188;-63
2021/05/10 03:22:50;;;;;;;3.45;1.20;;;;;;;17.02;46.53;95632.41;4999406;28;20189;-62
2021/05/10 03:25:16;;;;;;;1.70;1.20;;;;;;;17.14;46.54;95629.28;5032160;28;20187;-62
2021/05/10 03:27:41;;;;;;;1.70;1.33;;;;;;;17.11;46.57;95640.44;5032559;28;20186;-63
2021/05/10 03:30:19;;;;;;;1.25;1.25;;;;;;;17.03;47.68;95639.28;5032939;28;20297;-63
2021/05/10 03:32:45;;;;;;;1.25;1.25;;;;;;;17.07;47.74;95633.38;5033081;28;20179;-63
2021/05/10 03:35:12;;;;;;;2.35;1.63;;;;;;;17.09;48.05;95637.31;5033104;28;20222;-63
2021/05/10 03:37:38;;;;;;;1.30;1.20;;;;;;;17.03;47.90;95639.28;5032283;28;20191;-63
2021/05/10 03:40:05;;;;;;;1.20;1.20;;;;;;;16.94;47.94;95648.97;5015041;28;20655;-62
2021/05/10 03:42:31;;;;;;;2.17;1.58;;;;;;;16.98;48.13;95663.22;5031793;28;20273;-63
2021/05/10 03:44:56;;;;;;;1.40;1.30;;;;;;;16.91;48.36;95676.03;5032413;28;20687;-63
2021/05/10 03:47:32;;;;;;;1.42;1.33;;;;;;;16.88;48.41;95679.28;5032405;28;20217;-63
2021/05/10 03:49:59;;;;;;;1.60;1.50;;;;;;;17.01;47.89;95683.00;5032379;28;20195;-63
2021/05/10 03:52:24;;;;;;;1.35;1.25;;;;;;;17.02;47.68;95698.59;5032201;28;20633;-63
2021/05/10 03:54:49;;;;;;;1.33;1.30;;;;;;;17.12;47.71;95696.84;5032101;28;20301;-63
2021/05/10 03:57:15;;;;;;;1.20;1.20;;;;;;;17.17;47.68;95686.94;5014563;28;20185;-62
2021/05/10 03:59:40;;;;;;;1.27;1.20;;;;;;;17.23;46.76;95695.56;5031489;28;20193;-63
2021/05/10 04:02:06;;;;;;;2.35;1.30;;;;;;;17.31;46.27;95708.13;5032669;28;20253;-63
2021/05/10 04:04:39;;;;;;;1.38;1.27;;;;;;;17.31;46.58;95708.13;5012537;28;20179;-63
2021/05/10 04:14:55;;;;;;;1.10;1.00;;;;;;;17.50;45.16;95713.31;4980961;28;20194;-63
2021/05/10 04:17:21;;;;;;;1.10;1.10;;;;;;;17.61;45.00;95717.34;5031074;28;20267;-63
2021/05/10 04:19:46;;;;;;;1.27;1.23;;;;;;;17.58;44.67;95713.38;5031923;28;20186;-63
2021/05/10 04:22:12;;;;;;;1.80;1.40;;;;;;;17.71;44.46;95714.50;5014416;28;20197;-63
2021/05/10 04:24:37;;;;;;;1.38;1.27;;;;;;;17.69;44.30;95714.78;5030793;28;20191;-63
2021/05/10 04:27:05;;;;;;;1.40;1.30;;;;;;;17.76;44.36;95720.47;5014274;28;20627;-63
2021/05/10 04:29:30;;;;;;;2.25;1.10;;;;;;;17.77;44.47;95719.38;5030853;28;20179;-63
2021/05/10 04:31:56;;;;;;;1.30;1.10;;;;;;;17.81;44.60;95717.69;5031240;28;20551;-63
2021/05/10 04:34:21;;;;;;;1.27;1.17;;;;;;;17.91;43.68;95711.38;5012920;28;20206;-63
2021/05/10 04:36:46;;;;;;;1.15;1.15;;;;;;;17.93;44.02;95717.19;5031519;28;20213;-63
2021/05/10 04:39:12;;;;;;;1.20;1.10;;;;;;;17.93;44.22;95711.88;5013560;28;20198;-63
2021/05/10 04:41:37;;;;;;;1.20;1.17;;;;;;;18.02;43.98;95706.63;5030915;28;20274;-63
2021/05/10 04:44:03;;;;;;;1.30;1.30;;;;;;;18.10;43.69;95711.25;5031250;28;20210;-63
2021/05/10 04:46:28;;;;;;;1.10;1.10;;;;;;;18.09;43.85;95705.16;5031089;28;20222;-63
2021/05/10 04:48:54;;;;;;;1.45;1.17;;;;;;;18.16;43.89;95704.75;5031051;28;20248;-63
2021/05/10 04:51:19;;;;;;;1.77;1.25;;;;;;;18.14;43.99;95707.69;5029871;28;20287;-62
2021/05/10 04:53:44;;;;;;;1.30;1.20;;;;;;;18.19;43.77;95691.66;5031279;28;20197;-63
2021/05/10 04:56:10;;;;;;;1.00;1.00;;;;;;;18.24;43.79;95691.53;5030520;28;20186;-63
2021/05/10 04:58:35;;;;;;;1.00;1.00;;;;;;;18.40;42.84;95699.09;5029962;28;20175;-63
2021/05/10 05:01:01;;;;;;;2.10;1.25;;;;;;;18.41;43.08;95682.91;5030563;28;20613;-63
2021/05/10 05:03:26;;;;;;;1.13;1.13;;;;;;;18.66;42.68;95695.56;5011776;28;20237;-63
2021/05/10 05:05:52;;;;;;;2.05;1.17;;;;;;;18.74;43.01;95712.63;5030619;28;20190;-63
2021/05/10 05:08:17;;;;;;;1.00;1.00;;;;;;;18.82;42.94;95708.47;5030470;28;20191;-62
2021/05/10 05:10:42;;;;;;;1.40;1.30;;;;;;;18.93;42.85;95704.44;5030697;28;20288;-63
2021/05/10 05:13:08;;;;;;;0.98;0.98;;;;;;;19.05;42.63;95715.28;5030813;28;20186;-63
2021/05/10 05:15:33;;;;;;;1.33;1.25;;;;;;;19.01;43.08;95712.44;5030092;28;20185;-63
2021/05/10 05:17:59;;;;;;;1.58;1.20;;;;;;;18.99;43.97;95716.50;5030951;28;20647;-63
2021/05/10 05:20:24;;;;;;;1.45;1.08;;;;;;;19.02;43.19;95721.97;5030126;28;20210;-63
2021/05/10 05:22:50;;;;;;;1.27;1.17;;;;;;;19.02;43.32;95731.81;5031170;28;20674;-63
2021/05/10 05:25:16;;;;;;;1.40;1.30;;;;;;;19.09;43.57;95732.97;5030621;28;20693;-62
2021/05/10 05:27:41;;;;;;;1.42;1.33;;;;;;;19.18;43.38;95721.56;5030450;28;20182;-63
2021/05/10 05:30:09;;;;;;;1.30;1.30;;;;;;;19.14;43.68;95726.72;5030468;28;20649;-62
2021/05/10 05:32:35;;;;;;;1.50;1.40;;;;;;;19.04;45.14;95727.00;5023288;28;20236;-65
2021/05/10 05:35:00;;;;;;;2.47;1.45;;;;;;;19.12;46.00;95728.88;5030828;28;20257;-65
2021/05/10 05:37:26;;;;;;;1.40;1.30;;;;;;;19.25;43.90;95735.19;5011972;28;20273;-65
2021/05/10 05:39:51;;;;;;;1.13;1.13;;;;;;;19.30;42.80;95724.44;5031021;28;20598;-63
2021/05/10 05:42:18;;;;;;;1.20;1.10;;;;;;;19.38;41.82;95737.75;5029804;28;20714;-62
2021/05/10 05:44:48;;;;;;;1.10;1.10;;;;;;;19.47;41.29;95724.50;5030235;28;20187;-63
2021/05/10 05:47:18;;;;;;;1.35;1.25;;;;;;;19.69;40.25;95727.06;5030488;28;20587;-62
2021/05/10 05:49:43;;;;;;;0.98;0.98;;;;;;;19.80;40.32;95731.00;5030114;28;20199;-63
2021/05/10 05:52:09;;;;;;;4.43;1.30;;;;;;;20.01;39.92;95730.38;5030492;28;20186;-63
2021/05/10 05:54:34;;;;;;;1.23;1.23;;;;;;;20.13;39.69;95741.97;5029758;28;20287;-63
2021/05/10 05:57:00;;;;;;;1.00;1.00;;;;;;;20.21;39.90;95765.16;5030404;28;20201;-63
2021/05/10 05:59:25;;;;;;;2.22;1.33;;;;;;;20.12;39.98;95767.03;5029780;28;20182;-63
2021/05/10 06:01:51;;;;;;;242.25;130.90;;;;;;;20.08;39.94;95773.28;5029983;28;20273;-64
2021/05/10 06:04:16;;;;;;;42.35;25.92;;;;;;;20.19;39.83;95793.97;5014123;28;20189;-63
2021/05/10 06:06:41;;;;;;;5.10;3.83;;;;;;;20.18;39.85;95811.00;5028494;28;20179;-66
2021/05/10 06:09:09;;;;;;;2.08;1.88;;;;;;;19.96;39.85;95805.81;5033860;28;20587;-65
2021/05/10 06:11:35;;;;;;;1.80;1.70;;;;;;;20.14;39.66;95803.97;5033232;28;20297;-63
2021/05/10 06:14:01;;;;;;;1.60;1.50;;;;;;;20.09;40.13;95806.78;5034373;28;20252;-66
2021/05/10 06:16:27;;;;;;;1.95;1.70;;;;;;;20.26;39.86;95818.25;5033569;28;20537;-65
2021/05/10 06:18:53;;;;;;;1.70;1.60;;;;;;;20.31;39.78;95811.97;5033909;28;20652;-65
2021/05/10 06:21:19;;;;;;;3.60;2.00;;;;;;;20.44;39.27;95807.63;5033500;28;20213;-65
2021/05/10 06:23:44;;;;;;;1.80;1.70;;;;;;;20.49;39.17;95805.59;5033967;28;20182;-65
2021/05/10 06:26:10;;;;;;;1.85;1.13;;;;;;;20.56;38.81;95813.88;5034246;28;20190;-64
2021/05/10 06:28:35;;;;;;;1.38;1.27;;;;;;;20.83;38.32;95809.34;5033368;28;20197;-64
2021/05/10 06:31:01;;;;;;;1.38;1.33;;;;;;;20.91;38.05;95816.53;5033913;28;20210;-64
2021/05/10 06:33:26;;;;;;;1.10;1.10;;;;;;;21.01;38.10;95824.97;5033310;28;20222;-64
2021/05/10 06:35:52;;;;;;;1.17;1.15;;;;;;;20.95;37.93;95828.13;5033030;28;20282;-63
2021/05/10 06:38:18;;;;;;;1.17;1.15;;;;;;;20.77;38.36;95827.38;5015862;28;20650;-65
2021/05/10 06:40:43;;;;;;;1.65;1.55;;;;;;;20.27;42.71;95832.31;5033361;28;20225;-65
2021/05/10 06:43:09;;;;;;;1.73;1.63;;;;;;;20.05;43.73;95830.56;5033679;28;20655;-64
2021/05/10 06:45:34;;;;;;;1.77;1.67;;;;;;;19.90;44.48;95829.09;5032489;28;20210;-66
2021/05/10 06:48:00;;;;;;;1.60;1.50;;;;;;;20.24;44.02;95825.75;5033524;28;20191;-66
2021/05/10 06:50:25;;;;;;;1.88;1.27;;;;;;;20.63;42.19;95816.88;5033081;28;20203;-67
2021/05/10 06:52:50;;;;;;;1.40;1.30;;;;;;;20.93;41.33;95815.13;5033791;28;20265;-65
2021/05/10 06:55:16;;;;;;;1.52;1.42;;;;;;;21.05;40.75;95825.91;5033252;28;20193;-66
2021/05/10 06:57:41;;;;;;;2.10;1.70;;;;;;;21.33;40.56;95830.91;5032830;28;20228;-65
2021/05/10 07:00:08;;;;;;;1.25;1.23;;;;;;;21.04;40.75;95839.56;5033057;28;20250;-66
2021/05/10 07:02:33;;;;;;;2.25;1.67;;;;;;;20.58;43.34;95848.97;5032246;28;20191;-65
2021/05/10 07:04:58;;;;;;;1.92;1.45;;;;;;;20.22;45.83;95867.06;5014858;28;20186;-65
2021/05/10 07:07:24;;;;;;;4.65;1.70;;;;;;;20.48;45.41;95875.91;5032443;28;20186;-66
2021/05/10 07:09:49;;;;;;;4.13;1.73;;;;;;;20.61;44.79;95884.88;5023741;28;20179;-66
2021/05/10 07:12:15;;;;;;;1.75;1.38;;;;;;;20.62;44.58;95889.84;5022395;28;20186;-66
2021/05/10 07:14:40;;;;;;;1.17;1.08;;;;;;;20.47;42.14;95890.31;5032526;28;20627;-68
2021/05/10 07:17:07;;;;;;;5.55;1.60;;;;;;;20.61;42.51;95892.84;5015742;28;20183;-68
2021/05/10 07:19:32;;;;;;;1.73;1.63;;;;;;;20.63;42.63;95893.31;5030790;28;20198;-65
2021/05/10 07:21:57;;;;;;;1.75;1.35;;;;;;;20.68;42.77;95901.13;5032875;28;20187;-64
2021/05/10 07:24:23;;;;;;;1.70;1.55;;;;;;;20.47;43.18;95905.50;5032270;28;20659;-65
2021/05/10 07:26:48;;;;;;;4.53;1.40;;;;;;;20.50;42.59;95908.34;5032732;28;20261;-65
2021/05/10 07:29:14;;;;;;;1.13;1.10;;;;;;;20.74;43.04;95902.56;5033207;28;20210;-66
2021/05/10 07:31:39;;;;;;;1.35;1.25;;;;;;;21.02;42.65;95906.47;5015869;28;20444;-65
2021/05/10 07:34:05;;;;;;;1.45;1.35;;;;;;;21.24;42.65;95915.41;5032736;28;20586;-64
2021/05/10 07:36:30;;;;;;;1.52;1.42;;;;;;;21.05;42.98;95913.06;5032132;28;20202;-66
2021/05/10 07:38:55;;;;;;;2.22;1.30;;;;;;;21.14;43.45;95908.50;5032995;28;20189;-65
2021/05/10 07:41:21;;;;;;;2.35;1.55;;;;;;;21.05;43.96;95907.75;5032102;28;20201;-64
2021/05/10 07:43:46;;;;;;;1.50;1.40;;;;;;;20.85;44.49;95911.81;5014744;28;20190;-65
2021/05/10 07:46:12;;;;;;;1.58;1.48;;;;;;;20.87;45.12;95914.16;5015058;28;20269;-65
2021/05/10 07:48:37;;;;;;;1.60;1.30;;;;;;;20.69;45.54;95916.81;5032049;28;20312;-65
2021/05/10 07:51:03;;;;;;;1.15;1.15;;;;;;;20.59;45.77;95922.44;5014623;28;20210;-63
2021/05/10 07:53:29;;;;;;;4.13;1.67;;;;;;;20.28;46.68;95921.72;5031666;28;20198;-63
2021/05/10 07:55:54;;;;;;;1.50;1.40;;;;;;;20.28;47.02;95927.81;5032063;28;20187;-63
2021/05/10 07:58:24;;;;;;;1.50;1.40;;;;;;;20.33;47.10;95933.03;5032368;28;20212;-63
2021/05/10 08:00:54;;;;;;;1.95;1.77;;;;;;;20.19;48.04;95942.97;5031626;28;20225;-64
2021/05/10 08:03:21;;;;;;;1.85;1.65;;;;;;;20.37;48.02;95943.84;5030901;28;20195;-64
2021/05/10 08:05:46;;;;;;;1.67;1.58;;;;;;;20.50;47.99;95932.31;5014026;28;20195;-64
2021/05/10 08:08:13;;;;;;;2.05;1.85;;;;;;;20.35;48.20;95927.41;5032655;28;20187;-63
2021/05/10 08:10:39;;;;;;;1.30;1.23;;;;;;;20.38;48.47;95902.03;5029258;28;20756;-62
2021/05/10 08:13:05;;;;;;;2.08;1.50;;;;;;;20.23;49.28;95896.03;5032226;28;20193;-64
2021/05/10 08:15:30;;;;;;;2.00;1.60;;;;;;;20.43;49.63;95910.66;5031282;28;20186;-63
2021/05/10 08:17:56;;;;;;;1.63;1.52;;;;;;;20.38;49.40;95918.03;5031483;28;20179;-64
2021/05/10 08:20:21;;;;;;;1.30;1.30;;;;;;;20.44;49.92;95912.25;5030906;28;20256;-63
2021/05/10 08:22:46;;;;;;;2.15;1.50;;;;;;;20.85;49.46;95913.69;5031825;28;20189;-64
2021/05/10 08:25:12;;;;;;;1.50;1.50;;;;;;;20.73;49.09;95915.09;5031690;28;20194;-64
2021/05/10 08:27:39;;;;;;;2.53;1.52;;;;;;;20.70;50.11;95929.03;5030826;28;20569;-64
2021/05/10 08:30:07;;;;;;;2.03;1.38;;;;;;;21.20;48.90;95935.81;5031000;28;20202;-64
2021/05/10 08:32:33;;;;;;;1.50;1.40;;;;;;;21.11;48.66;95933.13;5030841;28;20187;-64
2021/05/10 08:34:59;;;;;;;1.50;1.48;;;;;;;21.02;49.64;95932.34;5031625;28;20236;-64
2021/05/10 08:37:27;;;;;;;2.00;1.50;;;;;;;20.72;50.66;95929.53;5022054;28;20225;-64
2021/05/10 08:39:52;;;;;;;3.13;1.42;;;;;;;21.05;50.07;95921.84;5031726;28;20218;-63
2021/05/10 08:42:18;;;;;;;1.80;1.55;;;;;;;20.73;50.77;95940.97;5031416;28;20616;-64
2021/05/10 08:44:43;;;;;;;2.25;1.27;;;;;;;20.65;50.69;95944.38;5030708;28;20209;-64
2021/05/10 08:47:09;;;;;;;4.88;1.48;;;;;;;20.48;51.76;95942.47;5031894;28;20284;-64
2021/05/10 08:49:35;;;;;;;1.55;1.25;;;;;;;20.52;51.97;95938.09;5030760;28;20225;-64
2021/05/10 08:52:00;;;;;;;1.30;1.20;;;;;;;20.74;51.32;95932.63;5031541;28;20598;-64
2021/05/10 08:54:27;;;;;;;1.60;1.50;;;;;;;20.92;51.19;95930.00;5030222;28;20178;-63
2021/05/10 08:56:54;;;;;;;1.70;1.60;;;;;;;20.44;51.75;95930.88;5030669;28;20754;-64
2021/05/10 08:59:20;;;;;;;1.35;1.27;;;;;;;20.66;51.72;95940.63;5030991;28;20191;-63
2021/05/10 09:01:55;;;;;;;1.20;1.20;;;;;;;20.90;50.83;95940.94;5030814;28;20683;-64
2021/05/10 09:04:38;;;;;;;1.60;1.30;;;;;;;20.90;50.49;95942.84;5030061;28;20197;-64
2021/05/10 09:07:22;;;;;;;2.60;1.50;;;;;;;20.96;51.11;95949.56;5030982;28;20186;-64
2021/05/10 09:09:59;;;;;;;1.55;1.30;;;;;;;20.41;51.99;95944.78;5016225;28;20253;-64
2021/05/10 09:12:49;;;;;;;1.20;1.10;;;;;;;20.77;50.80;95949.88;5030304;28;20216;-64
2021/05/10 09:15:20;;;;;;;1.50;1.40;;;;;;;20.48;51.37;95960.31;5031151;28;20335;-64
2021/05/10 09:17:46;;;;;;;2.00;1.30;;;;;;;20.36;51.44;95962.78;5015069;28;20240;-63
2021/05/10 09:20:26;;;;;;;1.33;1.23;;;;;;;20.93;50.61;95956.31;5031126;28;20191;-64
2021/05/10 09:22:55;;;;;;;2.78;1.40;;;;;;;20.82;51.04;95960.38;5030783;28;20182;-64
2021/05/10 09:25:31;;;;;;;1.30;1.20;;;;;;;20.81;51.66;95955.38;5030733;28;20179;-64
2021/05/10 09:28:20;;;;;;;1.40;1.30;;;;;;;20.92;51.29;95949.44;5013022;28;20175;-64
2021/05/10 09:30:51;;;;;;;1.77;1.15;;;;;;;21.05;50.34;95947.72;5030024;28;20244;-64
2021/05/10 09:33:25;;;;;;;1.50;1.40;;;;;;;20.78;51.22;95940.81;5016368;28;20576;-64
2021/05/10 09:36:03;;;;;;;1.65;1.45;;;;;;;20.85;51.56;95962.41;5030728;28;20212;-63
2021/05/10 09:38:30;;;;;;;3.45;1.92;;;;;;;20.85;51.10;95958.97;5029929;28;20221;-64
2021/05/10 09:41:14;;;;;;;1.52;1.42;;;;;;;21.02;51.21;95962.44;5030986;28;20185;-63
2021/05/10 09:43:40;;;;;;;1.50;1.40;;;;;;;20.87;52.26;95960.25;5033294;28;20639;-64
2021/05/10 09:46:07;;;;;;;1.65;1.52;;;;;;;21.26;51.31;95969.22;5034768;28;20186;-64
2021/05/10 09:48:37;;;;;;;1.48;1.35;;;;;;;20.99;51.97;95967.63;5033697;28;20655;-64
2021/05/10 09:51:07;;;;;;;2.22;1.50;;;;;;;20.90;52.07;95970.25;5034609;28;20314;-64
2021/05/10 09:53:39;;;;;;;1.52;1.42;;;;;;;20.83;52.31;95966.50;5016504;28;20190;-64
2021/05/10 09:56:08;;;;;;;1.58;1.40;;;;;;;20.80;52.20;95967.91;5034840;28;20631;-64
2021/05/10 09:58:44;;;;;;;1.40;1.30;;;;;;;20.18;53.52;95978.66;5033595;28;20190;-64
2021/05/10 10:01:11;;;;;;;1.77;1.55;;;;;;;20.22;53.14;95966.31;5034081;28;20297;-64
2021/05/10 10:03:38;;;;;;;2.00;1.48;;;;;;;20.41;53.55;95975.94;5014884;28;20198;-63
2021/05/10 10:06:17;;;;;;;2.83;1.40;;;;;;;20.73;52.08;95978.25;5016885;28;20643;-64
2021/05/10 10:08:48;;;;;;;1.45;1.33;;;;;;;20.93;51.57;95977.66;5018072;28;20751;-64
2021/05/10 10:11:18;;;;;;;1.80;1.25;;;;;;;20.95;51.38;95978.13;5034423;28;20233;-64
2021/05/10 10:13:45;;;;;;;1.67;1.10;;;;;;;20.65;51.32;95981.66;5033628;28;20947;-64
2021/05/10 10:16:11;;;;;;;1.60;1.20;;;;;;;20.08;52.23;96000.22;5034187;28;20191;-64
2021/05/10 10:18:39;;;;;;;1.65;0.90;;;;;;;20.36;51.68;95978.75;5016547;28;20530;-65
2021/05/10 10:21:06;;;;;;;1.00;1.00;;;;;;;20.34;51.48;95993.16;5016603;28;20185;-64
2021/05/10 10:23:33;;;;;;;1.23;1.08;;;;;;;20.53;51.32;96000.91;5033620;28;20221;-63
2021/05/10 10:25:59;;;;;;;2.83;1.00;;;;;;;20.41;51.33;96000.69;5033154;28;20669;-63
2021/05/10 10:28:26;;;;;;;1.27;1.20;;;;;;;20.24;50.60;96011.25;5033903;28;20650;-62
2021/05/10 10:31:06;;;;;;;0.80;0.80;;;;;;;20.65;49.80;96019.75;5034153;28;20195;-62
2021/05/10 10:33:51;;;;;;;1.15;0.90;;;;;;;20.73;49.99;96026.19;5018238;28;20631;-62
2021/05/10 10:36:29;;;;;;;0.80;0.80;;;;;;;20.39;49.95;96066.00;5025146;28;20182;-63
2021/05/10 10:39:22;;;;;;;0.88;0.88;;;;;;;20.65;49.87;96054.34;5031777;28;20186;-62
2021/05/10 10:41:57;;;;;;;0.70;0.70;;;;;;;20.41;49.78;96080.56;5034220;28;20249;-62
2021/05/10 10:44:30;;;;;;;1.10;1.00;;;;;;;20.80;49.61;96060.34;5024139;28;20462;-62
2021/05/10 10:46:56;;;;;;;0.98;0.75;;;;;;;20.57;49.77;96068.41;5012795;28;20222;-63
2021/05/10 10:49:33;;;;;;;0.70;0.70;;;;;;;20.38;50.50;96056.44;5016154;28;20658;-63
2021/05/10 10:51:58;;;;;;;0.70;0.70;;;;;;;20.10;51.00;96037.19;5033555;28;20198;-63
2021/05/10 10:54:27;;;;;;;1.13;0.85;;;;;;;20.13;51.37;96042.66;5015745;28;20241;-63
2021/05/10 10:57:00;;;;;;;0.77;0.77;;;;;;;20.09;51.67;96039.03;5015780;28;20194;-62
2021/05/10 10:59:39;;;;;;;0.82;0.82;;;;;;;20.69;49.95;96047.31;5032402;28;20659;-63
2021/05/10 11:02:18;;;;;;;0.60;0.60;;;;;;;20.58;50.96;96058.56;5033277;28;20246;-63
2021/05/10 11:04:46;;;;;;;0.90;0.90;;;;;;;20.45;51.25;96065.53;5031543;28;20788;-62
2021/05/10 11:07:12;;;;;;;0.80;0.80;;;;;;;20.19;52.04;96054.75;5033881;28;20194;-64
2021/05/10 11:09:46;;;;;;;0.90;0.80;;;;;;;20.40;51.56;96057.69;5029067;28;20202;-63
2021/05/10 11:12:48;;;;;;;0.77;0.77;;;;;;;20.06;52.30;96073.47;5033448;28;20704;-63
2021/05/10 11:15:41;;;;;;;0.90;0.90;;;;;;;20.47;51.68;96067.91;5033028;28;20710;-63
2021/05/10 11:18:07;;;;;;;0.70;0.70;;;;;;;19.77;53.12;96072.03;5021517;28;20195;-63
2021/05/10 11:20:46;;;;;;;0.80;0.80;;;;;;;19.41;54.41;96074.66;5032037;28;20190;-63
2021/05/10 11:23:23;;;;;;;0.80;0.80;;;;;;;19.74;53.67;96085.91;5033170;28;20186;-63
2021/05/10 11:25:50;;;;;;;0.75;0.75;;;;;;;19.69;53.88;96085.25;5032612;28;20186;-63
2021/05/10 11:28:24;;;;;;;0.70;0.70;;;;;;;19.95;53.04;96099.50;5033379;28;20636;-63
2021/05/10 11:30:57;;;;;;;2.15;1.10;;;;;;;19.86;53.52;96099.47;5032130;28;20233;-63
2021/05/10 11:33:54;;;;;;;0.75;0.75;;;;;;;19.64;54.11;96106.63;5033075;28;20395;-63
2021/05/10 11:36:46;;;;;;;0.80;0.80;;;;;;;19.68;53.90;96102.28;5032524;28;20530;-63
2021/05/10 11:39:16;;;;;;;0.98;0.95;;;;;;;19.85;53.91;96105.88;5031176;28;20186;-63
2021/05/10 11:41:43;;;;;;;0.90;0.90;;;;;;;19.57;54.37;96100.94;5031894;28;20195;-63
2021/05/10 11:44:18;;;;;;;1.42;0.90;;;;;;;19.65;54.25;96105.56;5032957;28;20198;-62